Historique des mesures à Cassis (13260), France
Quotidien Résumé Avril 18, 2018 Unités:  Métrique    US   Métrique/US
« Précédent (Jour)
Suivant (Jour) »
Quotidien Hebdomadaire Mensuel Annuel Période au choix
  Maximum: Minimum: Moyenne:
Température: TemperatureC °C 17.3 °C 20.1 °C
Point de rosée: DewpointC °C 8.7 °C 10 °C
Humidité: Humidity % 42 % 49 %
Vitesse du vent: 0 km/h 0 km/h 2.9 km/h
Rafales: 0 km/h - -
Vent:- - South
Pression: PressurehPa hPa 1020.2 hPa -
Précipitations: 0.0 mm    
Historical Graphs
 
 
Mesures pour : Avril 18, 2018
Heure Temperature Point de rosée Pression Vent Vitesse du vent Rafales Humidité Pluie (par heure) Conditions
TemperatureC °C DewpointC °C PressurehPa hPa Calm     Humidity % HourlyPrecipMM mm SoftwareType W/m2
00:12 18.1 °C 9.7 °C 1020.5 hPa NW 5.6 km/h 6.4 km/h 58 % 0.0 mm open2300-1.11 W/m2
01:12 17.9 °C 9.7 °C 1020.9 hPa Calm     59 % 0.0 mm open2300-1.11 W/m2
02:11 17.6 °C 9.4 °C 1020.9 hPa NW 5.1 km/h 7.6 km/h 59 % 0.0 mm open2300-1.11 W/m2
03:11 17.5 °C 9.1 °C 1020.5 hPa NNW 2.9 km/h 5.6 km/h 58 % 0.0 mm open2300-1.11 W/m2
04:11 17.3 °C 8.9 °C 1020.5 hPa Calm   4.2 km/h 58 % 0.0 mm open2300-1.11 W/m2
05:11 17.4 °C 9.0 °C 1020.2 hPa WNW 2.3 km/h 2.3 km/h 58 % 0.0 mm open2300-1.11 W/m2
06:11 17.3 °C 8.7 °C 1020.5 hPa North 5.6 km/h 5.6 km/h 57 % 0.0 mm open2300-1.11 W/m2
07:11 17.9 °C 9.2 °C 1021.2 hPa NNW 2.3 km/h 2.3 km/h 57 % 0.0 mm open2300-1.11 W/m2
08:11 18.9 °C 10.4 °C 1021.6 hPa Calm   9.3 km/h 58 % 0.0 mm open2300-1.11 W/m2
09:11 19.9 °C 11.4 °C 1022.2 hPa ENE 5.6 km/h 5.6 km/h 58 % 0.0 mm open2300-1.11 W/m2
10:10 21.3 °C 11.0 °C 1022.6 hPa SE 6.4 km/h 6.4 km/h 52 % 0.0 mm open2300-1.11 W/m2
11:10 24.4 °C 12.3 °C 1022.6 hPa North 8.9 km/h 8.9 km/h 47 % 0.0 mm open2300-1.11 W/m2
12:10 26.1 °C 12.8 °C 1022.6 hPa Calm   17.4 km/h 44 % 0.0 mm open2300-1.11 W/m2
13:10 26.1 °C 12.2 °C 1022.2 hPa NW 2.3 km/h 6.4 km/h 42 % 0.0 mm open2300-1.11 W/m2
14:10 26.1 °C 12.2 °C 1021.9 hPa SSE 7.6 km/h 17.4 km/h 42 % 0.0 mm open2300-1.11 W/m2
15:10 24.6 °C 11.8 °C 1022.2 hPa Calm   13.2 km/h 45 % 0.0 mm open2300-1.11 W/m2
16:10 24.6 °C 11.8 °C 1022.2 hPa ENE 1.8 km/h 5.1 km/h 45 % 0.0 mm open2300-1.11 W/m2
17:10 24.3 °C 11.6 °C 1021.9 hPa ESE 5.1 km/h 11.6 km/h 45 % 0.0 mm open2300-1.11 W/m2
18:10 23.8 °C 11.1 °C 1021.6 hPa WSW 2.3 km/h 10.9 km/h 45 % 0.0 mm open2300-1.11 W/m2
19:10 22.7 °C 10.4 °C 1021.9 hPa Calm   4.2 km/h 46 % 0.0 mm open2300-1.11 W/m2
20:12 21.3 °C 9.8 °C 1022.2 hPa Calm     48 % 0.0 mm open2300-1.11 W/m2
21:12 20.4 °C 9.7 °C 1022.2 hPa Calm     50 % 0.0 mm open2300-1.11 W/m2
22:11 19.4 °C 9.0 °C 1022.9 hPa Calm     51 % 0.0 mm open2300-1.11 W/m2
23:12 18.5 °C 8.7 °C 1023.2 hPa North 7.6 km/h 7.6 km/h 53 % 0.0 mm open2300-1.11 W/m2
Observations météo à CASSIS
WU-History script by Weather Underground - 1 mb